sensor_id;sensor_type;location;lat;lon;timestamp;pressure;altitude;pressure_sealevel;temperature;humidity
25510;BME280;13413;52.336;21.200;2023-02-02T00:01:08;99157.36;;;6.18;65.72
25510;BME280;13413;52.336;21.200;2023-02-02T00:04:02;99151.33;;;6.16;65.77
25510;BME280;13413;52.336;21.200;2023-02-02T00:06:56;99150.70;;;6.18;65.79
25510;BME280;13413;52.336;21.200;2023-02-02T00:09:51;99155.02;;;6.16;66.13
25510;BME280;13413;52.336;21.200;2023-02-02T00:12:45;99155.24;;;6.17;65.97
25510;BME280;13413;52.336;21.200;2023-02-02T00:15:39;99154.05;;;6.18;66.11
25510;BME280;13413;52.336;21.200;2023-02-02T00:18:33;99147.90;;;6.21;66.24
25510;BME280;13413;52.336;21.200;2023-02-02T00:21:27;99145.25;;;6.27;66.07
25510;BME280;13413;52.336;21.200;2023-02-02T00:24:21;99142.42;;;6.32;66.03
25510;BME280;13413;52.336;21.200;2023-02-02T00:27:14;99142.26;;;6.32;66.20
25510;BME280;13413;52.336;21.200;2023-02-02T00:30:10;99143.46;;;6.32;66.16
25510;BME280;13413;52.336;21.200;2023-02-02T00:33:05;99142.86;;;6.31;66.28
25510;BME280;13413;52.336;21.200;2023-02-02T00:35:59;99142.88;;;6.31;66.32
25510;BME280;13413;52.336;21.200;2023-02-02T00:39:14;99142.17;;;6.32;66.35
25510;BME280;13413;52.336;21.200;2023-02-02T00:42:07;99132.92;;;6.33;66.52
25510;BME280;13413;52.336;21.200;2023-02-02T00:45:02;99133.61;;;6.30;66.54
25510;BME280;13413;52.336;21.200;2023-02-02T00:47:55;99131.86;;;6.34;66.46
25510;BME280;13413;52.336;21.200;2023-02-02T00:50:49;99135.32;;;6.38;66.56
25510;BME280;13413;52.336;21.200;2023-02-02T00:53:42;99137.85;;;6.41;66.50
25510;BME280;13413;52.336;21.200;2023-02-02T00:56:36;99138.89;;;6.39;66.67
25510;BME280;13413;52.336;21.200;2023-02-02T00:59:31;99136.60;;;6.41;66.56
25510;BME280;13413;52.336;21.200;2023-02-02T01:02:25;99145.46;;;6.43;66.64
25510;BME280;13413;52.336;21.200;2023-02-02T01:05:19;99142.11;;;6.43;66.68
25510;BME280;13413;52.336;21.200;2023-02-02T01:08:14;99135.83;;;6.43;66.76
25510;BME280;13413;52.336;21.200;2023-02-02T01:11:08;99133.95;;;6.44;66.71
25510;BME280;13413;52.336;21.200;2023-02-02T01:14:02;99131.02;;;6.39;66.82
25510;BME280;13413;52.336;21.200;2023-02-02T01:16:55;99126.23;;;6.38;66.78
25510;BME280;13413;52.336;21.200;2023-02-02T01:19:49;99129.39;;;6.23;67.13
25510;BME280;13413;52.336;21.200;2023-02-02T01:22:41;99126.28;;;6.12;67.44
25510;BME280;13413;52.336;21.200;2023-02-02T01:31:15;99132.38;;;5.99;66.71
25510;BME280;13413;52.336;21.200;2023-02-02T01:34:09;99134.88;;;5.96;66.44
25510;BME280;13413;52.336;21.200;2023-02-02T01:37:17;99137.30;;;5.84;66.43
25510;BME280;13413;52.336;21.200;2023-02-02T01:40:13;99145.75;;;5.73;66.53
25510;BME280;13413;52.336;21.200;2023-02-02T01:43:20;99140.76;;;5.65;66.69
25510;BME280;13413;52.336;21.200;2023-02-02T01:46:17;99142.06;;;5.46;67.13
25510;BME280;13413;52.336;21.200;2023-02-02T01:49:13;99144.48;;;5.35;67.32
25510;BME280;13413;52.336;21.200;2023-02-02T01:52:09;99143.38;;;5.32;67.26
25510;BME280;13413;52.336;21.200;2023-02-02T01:55:08;99143.38;;;5.30;67.15
25510;BME280;13413;52.336;21.200;2023-02-02T01:58:08;99143.45;;;5.23;67.10
25510;BME280;13413;52.336;21.200;2023-02-02T02:01:04;99141.80;;;5.21;67.05
25510;BME280;13413;52.336;21.200;2023-02-02T02:03:58;99143.17;;;5.18;67.09
25510;BME280;13413;52.336;21.200;2023-02-02T02:06:52;99145.31;;;5.18;67.16
25510;BME280;13413;52.336;21.200;2023-02-02T02:09:46;99150.73;;;5.18;66.92
25510;BME280;13413;52.336;21.200;2023-02-02T02:12:40;99149.30;;;5.31;66.74
25510;BME280;13413;52.336;21.200;2023-02-02T02:15:38;99154.35;;;5.27;66.97
25510;BME280;13413;52.336;21.200;2023-02-02T02:18:43;99155.27;;;5.30;66.67
25510;BME280;13413;52.336;21.200;2023-02-02T02:21:46;99158.98;;;5.38;66.60
25510;BME280;13413;52.336;21.200;2023-02-02T02:31:47;99149.64;;;5.28;66.62
25510;BME280;13413;52.336;21.200;2023-02-02T02:34:50;99151.20;;;5.25;66.72
25510;BME280;13413;52.336;21.200;2023-02-02T02:37:49;99151.23;;;5.24;66.85
25510;BME280;13413;52.336;21.200;2023-02-02T02:40:50;99151.14;;;5.24;66.91
25510;BME280;13413;52.336;21.200;2023-02-02T02:43:50;99155.42;;;5.20;66.87
25510;BME280;13413;52.336;21.200;2023-02-02T02:46:45;99153.45;;;5.22;66.88
25510;BME280;13413;52.336;21.200;2023-02-02T02:49:44;99151.65;;;5.21;67.03
25510;BME280;13413;52.336;21.200;2023-02-02T02:52:40;99154.38;;;5.20;66.84
25510;BME280;13413;52.336;21.200;2023-02-02T02:55:41;99153.52;;;5.20;66.72
25510;BME280;13413;52.336;21.200;2023-02-02T02:58:47;99152.94;;;5.21;66.96
25510;BME280;13413;52.336;21.200;2023-02-02T03:01:50;99148.41;;;5.19;67.08
25510;BME280;13413;52.336;21.200;2023-02-02T03:04:54;99150.09;;;5.22;66.96
25510;BME280;13413;52.336;21.200;2023-02-02T03:07:56;99148.13;;;5.25;67.08
25510;BME280;13413;52.336;21.200;2023-02-02T03:10:54;99144.61;;;5.27;67.13
25510;BME280;13413;52.336;21.200;2023-02-02T03:13:50;99149.77;;;5.30;67.32
25510;BME280;13413;52.336;21.200;2023-02-02T03:16:44;99153.72;;;5.33;67.37
25510;BME280;13413;52.336;21.200;2023-02-02T03:19:38;99148.98;;;5.44;67.44
25510;BME280;13413;52.336;21.200;2023-02-02T03:22:32;99149.86;;;5.50;67.68
25510;BME280;13413;52.336;21.200;2023-02-02T03:25:26;99151.43;;;5.52;67.68
25510;BME280;13413;52.336;21.200;2023-02-02T03:31:30;99149.67;;;5.59;67.83
25510;BME280;13413;52.336;21.200;2023-02-02T03:34:38;99144.23;;;5.60;67.85
25510;BME280;13413;52.336;21.200;2023-02-02T03:37:33;99141.20;;;5.65;68.11
25510;BME280;13413;52.336;21.200;2023-02-02T03:40:26;99141.66;;;5.70;67.99
25510;BME280;13413;52.336;21.200;2023-02-02T03:49:50;99128.16;;;5.82;68.26
25510;BME280;13413;52.336;21.200;2023-02-02T03:52:44;99123.71;;;5.86;68.07
25510;BME280;13413;52.336;21.200;2023-02-02T03:55:38;99123.01;;;5.91;68.07
25510;BME280;13413;52.336;21.200;2023-02-02T03:58:32;99125.34;;;5.91;68.03
25510;BME280;13413;52.336;21.200;2023-02-02T04:01:29;99132.92;;;5.93;68.19
25510;BME280;13413;52.336;21.200;2023-02-02T04:04:23;99129.86;;;5.93;68.28
25510;BME280;13413;52.336;21.200;2023-02-02T04:07:17;99134.89;;;5.99;68.18
25510;BME280;13413;52.336;21.200;2023-02-02T04:10:12;99133.90;;;6.02;68.29
25510;BME280;13413;52.336;21.200;2023-02-02T04:13:06;99131.71;;;6.08;68.23
25510;BME280;13413;52.336;21.200;2023-02-02T04:16:01;99130.91;;;5.98;68.56
25510;BME280;13413;52.336;21.200;2023-02-02T04:18:55;99132.63;;;5.98;68.67
25510;BME280;13413;52.336;21.200;2023-02-02T04:21:49;99129.65;;;6.03;68.67
25510;BME280;13413;52.336;21.200;2023-02-02T04:24:43;99132.14;;;6.09;68.65
25510;BME280;13413;52.336;21.200;2023-02-02T04:27:37;99130.00;;;6.09;68.70
25510;BME280;13413;52.336;21.200;2023-02-02T04:30:31;99126.88;;;6.09;68.73
25510;BME280;13413;52.336;21.200;2023-02-02T04:33:26;99134.41;;;6.13;68.74
25510;BME280;13413;52.336;21.200;2023-02-02T04:36:20;99139.82;;;6.27;68.46
25510;BME280;13413;52.336;21.200;2023-02-02T04:39:14;99136.86;;;6.34;68.30
25510;BME280;13413;52.336;21.200;2023-02-02T04:42:08;99142.52;;;6.38;68.22
25510;BME280;13413;52.336;21.200;2023-02-02T04:45:02;99143.08;;;6.35;68.31
25510;BME280;13413;52.336;21.200;2023-02-02T04:47:56;99146.32;;;6.37;68.39
25510;BME280;13413;52.336;21.200;2023-02-02T04:50:50;99146.23;;;6.43;68.23
25510;BME280;13413;52.336;21.200;2023-02-02T04:53:44;99146.90;;;6.49;68.15
25510;BME280;13413;52.336;21.200;2023-02-02T04:59:32;99149.89;;;6.49;68.19
25510;BME280;13413;52.336;21.200;2023-02-02T05:02:26;99148.24;;;6.46;68.22
25510;BME280;13413;52.336;21.200;2023-02-02T05:05:20;99147.78;;;6.57;68.12
25510;BME280;13413;52.336;21.200;2023-02-02T05:08:14;99148.18;;;6.59;68.09
25510;BME280;13413;52.336;21.200;2023-02-02T05:11:09;99144.39;;;6.57;68.01
25510;BME280;13413;52.336;21.200;2023-02-02T05:14:04;99145.05;;;6.57;67.97
25510;BME280;13413;52.336;21.200;2023-02-02T05:16:58;99148.66;;;6.64;67.86
25510;BME280;13413;52.336;21.200;2023-02-02T05:19:52;99150.20;;;6.72;67.66
25510;BME280;13413;52.336;21.200;2023-02-02T05:22:49;99153.36;;;6.74;67.48
25510;BME280;13413;52.336;21.200;2023-02-02T05:28:36;99158.47;;;6.74;67.54
25510;BME280;13413;52.336;21.200;2023-02-02T05:31:30;99157.34;;;6.75;67.45
25510;BME280;13413;52.336;21.200;2023-02-02T05:34:24;99162.58;;;6.78;67.34
25510;BME280;13413;52.336;21.200;2023-02-02T05:37:18;99162.96;;;6.76;67.25
25510;BME280;13413;52.336;21.200;2023-02-02T05:40:13;99166.89;;;6.79;67.30
25510;BME280;13413;52.336;21.200;2023-02-02T05:43:05;99163.20;;;6.79;67.31
25510;BME280;13413;52.336;21.200;2023-02-02T05:45:59;99162.99;;;6.76;67.22
25510;BME280;13413;52.336;21.200;2023-02-02T05:48:53;99169.22;;;6.80;67.17
25510;BME280;13413;52.336;21.200;2023-02-02T05:51:50;99170.48;;;6.75;67.19
25510;BME280;13413;52.336;21.200;2023-02-02T05:54:45;99167.59;;;6.74;67.23
25510;BME280;13413;52.336;21.200;2023-02-02T05:57:39;99166.74;;;6.77;67.14
25510;BME280;13413;52.336;21.200;2023-02-02T06:00:31;99166.92;;;6.79;67.23
25510;BME280;13413;52.336;21.200;2023-02-02T06:11:23;99169.58;;;6.75;67.29
25510;BME280;13413;52.336;21.200;2023-02-02T06:14:17;99170.70;;;6.70;67.29
25510;BME280;13413;52.336;21.200;2023-02-02T06:17:11;99171.80;;;6.66;67.33
25510;BME280;13413;52.336;21.200;2023-02-02T06:20:06;99172.01;;;6.71;67.27
25510;BME280;13413;52.336;21.200;2023-02-02T06:22:58;99171.56;;;6.74;67.24
25510;BME280;13413;52.336;21.200;2023-02-02T06:25:52;99170.89;;;6.73;67.35
25510;BME280;13413;52.336;21.200;2023-02-02T06:28:49;99174.70;;;6.72;67.32
25510;BME280;13413;52.336;21.200;2023-02-02T06:31:44;99177.50;;;6.75;67.25
25510;BME280;13413;52.336;21.200;2023-02-02T06:34:38;99178.38;;;6.74;67.49
25510;BME280;13413;52.336;21.200;2023-02-02T06:37:32;99172.83;;;6.75;67.24
25510;BME280;13413;52.336;21.200;2023-02-02T06:40:26;99176.12;;;6.78;67.34
25510;BME280;13413;52.336;21.200;2023-02-02T06:43:21;99173.47;;;6.81;67.30
25510;BME280;13413;52.336;21.200;2023-02-02T06:46:15;99172.67;;;6.83;67.34
25510;BME280;13413;52.336;21.200;2023-02-02T06:49:08;99164.41;;;6.83;67.19
25510;BME280;13413;52.336;21.200;2023-02-02T06:52:02;99164.05;;;6.85;67.21
25510;BME280;13413;52.336;21.200;2023-02-02T06:54:56;99164.29;;;6.86;67.27
25510;BME280;13413;52.336;21.200;2023-02-02T06:57:56;99160.60;;;6.86;67.04
25510;BME280;13413;52.336;21.200;2023-02-02T07:00:51;99162.77;;;6.88;67.05
25510;BME280;13413;52.336;21.200;2023-02-02T07:03:48;99161.85;;;6.83;67.12
25510;BME280;13413;52.336;21.200;2023-02-02T07:06:42;99162.54;;;6.86;67.15
25510;BME280;13413;52.336;21.200;2023-02-02T07:09:36;99160.72;;;6.86;67.18
25510;BME280;13413;52.336;21.200;2023-02-02T07:12:30;99162.40;;;6.90;67.00
25510;BME280;13413;52.336;21.200;2023-02-02T07:15:24;99167.13;;;6.92;67.07
25510;BME280;13413;52.336;21.200;2023-02-02T07:18:18;99165.21;;;6.91;67.08
25510;BME280;13413;52.336;21.200;2023-02-02T07:21:17;99166.61;;;6.90;67.04
25510;BME280;13413;52.336;21.200;2023-02-02T07:24:11;99166.10;;;6.91;67.23
25510;BME280;13413;52.336;21.200;2023-02-02T07:27:18;99167.73;;;6.95;67.34
25510;BME280;13413;52.336;21.200;2023-02-02T07:30:13;99169.08;;;6.96;67.36
25510;BME280;13413;52.336;21.200;2023-02-02T07:33:06;99167.69;;;6.94;67.35
25510;BME280;13413;52.336;21.200;2023-02-02T07:36:02;99169.91;;;6.95;67.34
25510;BME280;13413;52.336;21.200;2023-02-02T07:38:56;99167.30;;;6.96;67.39
25510;BME280;13413;52.336;21.200;2023-02-02T07:41:50;99164.76;;;7.00;67.49
25510;BME280;13413;52.336;21.200;2023-02-02T07:44:44;99165.52;;;6.96;67.30
25510;BME280;13413;52.336;21.200;2023-02-02T07:47:37;99169.28;;;6.95;67.54
25510;BME280;13413;52.336;21.200;2023-02-02T07:50:32;99163.29;;;6.93;67.42
25510;BME280;13413;52.336;21.200;2023-02-02T07:53:26;99165.86;;;6.90;67.46
25510;BME280;13413;52.336;21.200;2023-02-02T07:56:22;99167.66;;;6.84;67.37
25510;BME280;13413;52.336;21.200;2023-02-02T07:59:17;99167.34;;;6.81;67.34
25510;BME280;13413;52.336;21.200;2023-02-02T08:02:24;99168.52;;;6.81;67.54
25510;BME280;13413;52.336;21.200;2023-02-02T08:05:19;99168.39;;;6.84;67.61
25510;BME280;13413;52.336;21.200;2023-02-02T08:08:13;99171.59;;;6.85;67.63
25510;BME280;13413;52.336;21.200;2023-02-02T08:11:08;99174.45;;;6.85;67.77
25510;BME280;13413;52.336;21.200;2023-02-02T08:14:03;99175.34;;;6.77;67.79
25510;BME280;13413;52.336;21.200;2023-02-02T08:16:56;99178.18;;;6.73;68.03
25510;BME280;13413;52.336;21.200;2023-02-02T08:19:50;99180.33;;;6.68;68.18
25510;BME280;13413;52.336;21.200;2023-02-02T08:22:42;99181.85;;;6.68;68.31
25510;BME280;13413;52.336;21.200;2023-02-02T08:31:35;99178.23;;;6.89;67.91
25510;BME280;13413;52.336;21.200;2023-02-02T08:34:30;99176.21;;;6.86;68.03
25510;BME280;13413;52.336;21.200;2023-02-02T08:37:23;99176.81;;;6.87;68.10
25510;BME280;13413;52.336;21.200;2023-02-02T08:40:18;99180.04;;;6.87;68.15
25510;BME280;13413;52.336;21.200;2023-02-02T08:43:11;99184.90;;;6.90;68.00
25510;BME280;13413;52.336;21.200;2023-02-02T08:46:05;99186.34;;;6.83;68.21
25510;BME280;13413;52.336;21.200;2023-02-02T08:49:00;99192.35;;;6.83;68.07
25510;BME280;13413;52.336;21.200;2023-02-02T08:51:53;99191.77;;;6.84;68.15
25510;BME280;13413;52.336;21.200;2023-02-02T08:54:46;99196.89;;;6.87;68.15
25510;BME280;13413;52.336;21.200;2023-02-02T08:57:40;99193.55;;;6.88;68.26
25510;BME280;13413;52.336;21.200;2023-02-02T09:00:34;99191.86;;;6.92;68.28
25510;BME280;13413;52.336;21.200;2023-02-02T09:03:28;99192.08;;;6.92;68.26
25510;BME280;13413;52.336;21.200;2023-02-02T09:06:43;99192.09;;;6.96;68.22
25510;BME280;13413;52.336;21.200;2023-02-02T09:09:37;99196.30;;;6.93;68.38
25510;BME280;13413;52.336;21.200;2023-02-02T09:12:31;99199.66;;;6.99;68.56
25510;BME280;13413;52.336;21.200;2023-02-02T09:15:38;99201.39;;;7.04;68.45
25510;BME280;13413;52.336;21.200;2023-02-02T09:18:32;99199.89;;;7.03;68.25
25510;BME280;13413;52.336;21.200;2023-02-02T09:21:25;99199.48;;;7.00;68.13
25510;BME280;13413;52.336;21.200;2023-02-02T09:24:19;99200.38;;;6.87;68.72
25510;BME280;13413;52.336;21.200;2023-02-02T09:27:13;99205.45;;;6.84;68.95
25510;BME280;13413;52.336;21.200;2023-02-02T09:30:09;99207.07;;;6.84;68.52
25510;BME280;13413;52.336;21.200;2023-02-02T09:33:03;99213.24;;;6.82;68.40
25510;BME280;13413;52.336;21.200;2023-02-02T09:36:04;99218.96;;;6.80;68.34
25510;BME280;13413;52.336;21.200;2023-02-02T09:38:58;99220.11;;;6.84;68.45
25510;BME280;13413;52.336;21.200;2023-02-02T09:45:16;99229.37;;;6.94;68.09
25510;BME280;13413;52.336;21.200;2023-02-02T09:48:23;99227.58;;;6.96;68.30
25510;BME280;13413;52.336;21.200;2023-02-02T09:51:22;99235.96;;;6.98;68.18
25510;BME280;13413;52.336;21.200;2023-02-02T09:54:21;99237.52;;;7.00;68.10
25510;BME280;13413;52.336;21.200;2023-02-02T09:57:21;99242.33;;;7.10;68.09
25510;BME280;13413;52.336;21.200;2023-02-02T10:00:26;99241.52;;;7.15;67.92
25510;BME280;13413;52.336;21.200;2023-02-02T10:03:26;99246.64;;;7.19;67.90
25510;BME280;13413;52.336;21.200;2023-02-02T10:06:31;99250.70;;;7.19;67.68
25510;BME280;13413;52.336;21.200;2023-02-02T10:12:51;99254.95;;;7.26;67.07
25510;BME280;13413;52.336;21.200;2023-02-02T10:15:52;99262.63;;;7.22;67.00
25510;BME280;13413;52.336;21.200;2023-02-02T10:18:55;99266.52;;;7.19;67.06
25510;BME280;13413;52.336;21.200;2023-02-02T10:21:56;99274.17;;;7.23;67.16
25510;BME280;13413;52.336;21.200;2023-02-02T10:24:52;99269.58;;;7.23;67.17
25510;BME280;13413;52.336;21.200;2023-02-02T10:27:50;99274.70;;;7.23;67.19
25510;BME280;13413;52.336;21.200;2023-02-02T10:30:53;99279.29;;;7.24;67.09
25510;BME280;13413;52.336;21.200;2023-02-02T10:34:00;99278.64;;;7.21;67.03
25510;BME280;13413;52.336;21.200;2023-02-02T10:37:14;99280.25;;;7.22;67.28
25510;BME280;13413;52.336;21.200;2023-02-02T10:40:25;99281.14;;;7.23;67.21
25510;BME280;13413;52.336;21.200;2023-02-02T10:43:46;99285.39;;;7.26;67.26
25510;BME280;13413;52.336;21.200;2023-02-02T10:51:50;99296.77;;;7.25;67.09
25510;BME280;13413;52.336;21.200;2023-02-02T10:54:57;99304.60;;;7.23;67.13
25510;BME280;13413;52.336;21.200;2023-02-02T10:58:08;99311.34;;;7.25;67.13
25510;BME280;13413;52.336;21.200;2023-02-02T11:01:08;99318.39;;;7.20;67.02
25510;BME280;13413;52.336;21.200;2023-02-02T11:04:02;99321.95;;;7.24;67.29
25510;BME280;13413;52.336;21.200;2023-02-02T11:06:56;99324.60;;;7.30;67.10
25510;BME280;13413;52.336;21.200;2023-02-02T11:09:50;99327.18;;;7.25;67.02
25510;BME280;13413;52.336;21.200;2023-02-02T11:12:46;99334.41;;;7.25;66.89
25510;BME280;13413;52.336;21.200;2023-02-02T11:15:41;99334.13;;;7.19;66.93
25510;BME280;13413;52.336;21.200;2023-02-02T11:18:35;99345.04;;;7.19;66.96
25510;BME280;13413;52.336;21.200;2023-02-02T11:21:31;99345.42;;;7.18;67.05
25510;BME280;13413;52.336;21.200;2023-02-02T11:24:28;99350.13;;;7.15;66.94
25510;BME280;13413;52.336;21.200;2023-02-02T11:27:25;99353.54;;;7.16;67.08
25510;BME280;13413;52.336;21.200;2023-02-02T11:30:26;99359.54;;;7.11;67.03
25510;BME280;13413;52.336;21.200;2023-02-02T11:33:28;99359.05;;;7.11;67.14
25510;BME280;13413;52.336;21.200;2023-02-02T11:36:22;99361.52;;;7.17;67.20
25510;BME280;13413;52.336;21.200;2023-02-02T11:39:20;99365.64;;;7.24;67.23
25510;BME280;13413;52.336;21.200;2023-02-02T11:42:16;99369.44;;;7.26;67.18
25510;BME280;13413;52.336;21.200;2023-02-02T11:45:17;99373.27;;;7.24;67.20
25510;BME280;13413;52.336;21.200;2023-02-02T11:48:16;99372.98;;;7.26;67.28
25510;BME280;13413;52.336;21.200;2023-02-02T11:51:22;99375.86;;;7.31;67.38
25510;BME280;13413;52.336;21.200;2023-02-02T11:54:27;99379.34;;;7.39;67.36
25510;BME280;13413;52.336;21.200;2023-02-02T11:57:24;99383.77;;;7.46;67.27
25510;BME280;13413;52.336;21.200;2023-02-02T12:00:22;99389.17;;;7.55;67.48
25510;BME280;13413;52.336;21.200;2023-02-02T12:03:29;99395.65;;;7.62;67.39
25510;BME280;13413;52.336;21.200;2023-02-02T12:06:25;99394.70;;;7.62;67.25
25510;BME280;13413;52.336;21.200;2023-02-02T12:09:22;99399.27;;;7.64;67.12
25510;BME280;13413;52.336;21.200;2023-02-02T12:12:27;99399.76;;;7.64;67.09
25510;BME280;13413;52.336;21.200;2023-02-02T12:15:31;99407.11;;;7.62;67.17
25510;BME280;13413;52.336;21.200;2023-02-02T12:18:42;99411.95;;;7.65;67.25
25510;BME280;13413;52.336;21.200;2023-02-02T12:21:48;99416.04;;;7.69;67.34
25510;BME280;13413;52.336;21.200;2023-02-02T12:24:53;99419.05;;;7.72;67.34
25510;BME280;13413;52.336;21.200;2023-02-02T12:27:54;99424.09;;;7.68;67.14
25510;BME280;13413;52.336;21.200;2023-02-02T12:31:01;99425.51;;;7.70;67.25
25510;BME280;13413;52.336;21.200;2023-02-02T12:34:04;99428.02;;;7.75;67.26
25510;BME280;13413;52.336;21.200;2023-02-02T12:37:05;99432.38;;;7.75;67.24
25510;BME280;13413;52.336;21.200;2023-02-02T12:40:13;99439.07;;;7.81;67.05
25510;BME280;13413;52.336;21.200;2023-02-02T12:43:20;99442.91;;;7.74;67.02
25510;BME280;13413;52.336;21.200;2023-02-02T12:46:23;99451.27;;;7.63;67.38
25510;BME280;13413;52.336;21.200;2023-02-02T12:49:41;99455.48;;;7.56;67.20
25510;BME280;13413;52.336;21.200;2023-02-02T12:52:58;99463.50;;;7.42;67.14
25510;BME280;13413;52.336;21.200;2023-02-02T12:56:05;99471.56;;;7.41;67.10
25510;BME280;13413;52.336;21.200;2023-02-02T12:59:12;99477.27;;;7.31;67.34
25510;BME280;13413;52.336;21.200;2023-02-02T13:02:19;99488.86;;;7.24;67.48
25510;BME280;13413;52.336;21.200;2023-02-02T13:10:52;99509.02;;;7.11;67.78
25510;BME280;13413;52.336;21.200;2023-02-02T13:13:47;99514.99;;;7.08;67.71
25510;BME280;13413;52.336;21.200;2023-02-02T13:16:44;99520.78;;;7.12;67.51
25510;BME280;13413;52.336;21.200;2023-02-02T13:19:41;99529.56;;;7.09;67.57
25510;BME280;13413;52.336;21.200;2023-02-02T13:22:39;99536.49;;;7.09;67.66
25510;BME280;13413;52.336;21.200;2023-02-02T13:25:42;99543.38;;;7.09;67.57
25510;BME280;13413;52.336;21.200;2023-02-02T13:28:58;99551.17;;;7.03;67.25
25510;BME280;13413;52.336;21.200;2023-02-02T13:31:58;99558.38;;;7.08;67.38
25510;BME280;13413;52.336;21.200;2023-02-02T13:34:59;99566.55;;;7.20;67.37
25510;BME280;13413;52.336;21.200;2023-02-02T13:37:58;99568.35;;;7.30;67.13
25510;BME280;13413;52.336;21.200;2023-02-02T13:40:58;99575.59;;;7.33;66.70
25510;BME280;13413;52.336;21.200;2023-02-02T13:43:58;99585.66;;;7.31;66.58
25510;BME280;13413;52.336;21.200;2023-02-02T13:46:59;99588.68;;;7.32;66.51
25510;BME280;13413;52.336;21.200;2023-02-02T13:49:59;99592.16;;;7.34;66.58
25510;BME280;13413;52.336;21.200;2023-02-02T13:53:11;99598.50;;;7.26;66.58
25510;BME280;13413;52.336;21.200;2023-02-02T13:59:40;99614.67;;;7.29;66.32
25510;BME280;13413;52.336;21.200;2023-02-02T14:02:43;99618.90;;;7.29;66.45
25510;BME280;13413;52.336;21.200;2023-02-02T14:05:41;99621.99;;;7.30;66.48
25510;BME280;13413;52.336;21.200;2023-02-02T14:08:36;99622.63;;;7.41;66.31
25510;BME280;13413;52.336;21.200;2023-02-02T14:11:32;99630.77;;;7.44;66.10
25510;BME280;13413;52.336;21.200;2023-02-02T14:14:26;99636.55;;;7.48;65.95
25510;BME280;13413;52.336;21.200;2023-02-02T14:17:50;99644.94;;;7.50;65.99
25510;BME280;13413;52.336;21.200;2023-02-02T14:20:49;99655.77;;;7.55;65.95
25510;BME280;13413;52.336;21.200;2023-02-02T14:23:56;99663.58;;;7.55;65.87
25510;BME280;13413;52.336;21.200;2023-02-02T14:26:52;99670.39;;;7.53;65.70
25510;BME280;13413;52.336;21.200;2023-02-02T14:30:02;99680.39;;;7.52;65.69
25510;BME280;13413;52.336;21.200;2023-02-02T14:33:39;99686.19;;;7.55;65.74
25510;BME280;13413;52.336;21.200;2023-02-02T14:36:37;99693.20;;;7.55;65.62
25510;BME280;13413;52.336;21.200;2023-02-02T14:39:31;99702.41;;;7.56;65.72
25510;BME280;13413;52.336;21.200;2023-02-02T14:42:41;99704.29;;;7.57;65.53
25510;BME280;13413;52.336;21.200;2023-02-02T14:45:39;99715.31;;;7.54;65.62
25510;BME280;13413;52.336;21.200;2023-02-02T14:48:34;99734.28;;;7.53;65.69
25510;BME280;13413;52.336;21.200;2023-02-02T14:51:32;99750.74;;;7.54;65.85
25510;BME280;13413;52.336;21.200;2023-02-02T14:54:32;99754.39;;;7.51;65.30
25510;BME280;13413;52.336;21.200;2023-02-02T14:57:28;99766.05;;;7.42;64.62
25510;BME280;13413;52.336;21.200;2023-02-02T15:03:52;99777.03;;;7.12;64.49
25510;BME280;13413;52.336;21.200;2023-02-02T15:06:46;99787.30;;;6.96;64.59
25510;BME280;13413;52.336;21.200;2023-02-02T15:09:42;99794.16;;;6.91;64.77
25510;BME280;13413;52.336;21.200;2023-02-02T15:12:36;99800.38;;;6.91;64.84
25510;BME280;13413;52.336;21.200;2023-02-02T15:15:31;99804.15;;;6.92;64.91
25510;BME280;13413;52.336;21.200;2023-02-02T15:18:25;99811.13;;;6.90;64.82
25510;BME280;13413;52.336;21.200;2023-02-02T15:21:19;99816.64;;;6.85;64.60
25510;BME280;13413;52.336;21.200;2023-02-02T15:31:27;99844.53;;;6.81;64.78
25510;BME280;13413;52.336;21.200;2023-02-02T15:34:26;99850.70;;;6.79;64.55
25510;BME280;13413;52.336;21.200;2023-02-02T15:37:28;99863.46;;;6.75;64.51
25510;BME280;13413;52.336;21.200;2023-02-02T15:40:25;99873.59;;;6.75;64.71
25510;BME280;13413;52.336;21.200;2023-02-02T15:43:21;99879.64;;;6.75;64.67
25510;BME280;13413;52.336;21.200;2023-02-02T15:46:17;99888.39;;;6.73;64.53
25510;BME280;13413;52.336;21.200;2023-02-02T15:49:31;99896.60;;;6.67;64.74
25510;BME280;13413;52.336;21.200;2023-02-02T15:52:28;99900.78;;;6.61;64.72
25510;BME280;13413;52.336;21.200;2023-02-02T15:55:29;99908.54;;;6.59;64.89
25510;BME280;13413;52.336;21.200;2023-02-02T15:58:29;99912.59;;;6.61;64.86
25510;BME280;13413;52.336;21.200;2023-02-02T16:01:24;99925.54;;;6.58;64.77
25510;BME280;13413;52.336;21.200;2023-02-02T16:04:21;99929.09;;;6.56;64.82
25510;BME280;13413;52.336;21.200;2023-02-02T16:07:18;99938.38;;;6.56;64.70
25510;BME280;13413;52.336;21.200;2023-02-02T16:10:19;99955.70;;;6.55;64.54
25510;BME280;13413;52.336;21.200;2023-02-02T16:13:23;99959.98;;;6.54;64.62
25510;BME280;13413;52.336;21.200;2023-02-02T16:16:24;99966.39;;;6.55;64.48
25510;BME280;13413;52.336;21.200;2023-02-02T16:19:20;99977.96;;;6.48;64.44
25510;BME280;13413;52.336;21.200;2023-02-02T16:22:17;99980.73;;;6.42;64.41
25510;BME280;13413;52.336;21.200;2023-02-02T16:25:17;99987.71;;;6.42;64.08
25510;BME280;13413;52.336;21.200;2023-02-02T16:28:15;99990.52;;;6.46;64.08
25510;BME280;13413;52.336;21.200;2023-02-02T16:31:10;99993.25;;;6.36;64.24
25510;BME280;13413;52.336;21.200;2023-02-02T16:34:04;100001.25;;;6.35;64.26
25510;BME280;13413;52.336;21.200;2023-02-02T16:37:13;100010.75;;;6.37;63.89
25510;BME280;13413;52.336;21.200;2023-02-02T16:40:23;100014.80;;;6.34;63.77
25510;BME280;13413;52.336;21.200;2023-02-02T16:43:24;100023.62;;;6.37;63.67
25510;BME280;13413;52.336;21.200;2023-02-02T16:46:40;100035.07;;;6.36;63.83
25510;BME280;13413;52.336;21.200;2023-02-02T16:49:36;100046.60;;;6.37;63.69
25510;BME280;13413;52.336;21.200;2023-02-02T16:52:28;100048.98;;;6.34;63.49
25510;BME280;13413;52.336;21.200;2023-02-02T16:55:23;100052.95;;;6.31;63.80